Time;durP1;ratioP1;P1;durP2;ratioP2;P2;SDS_P1;SDS_P2;PMS_P1;PMS_P2;Temp;Humidity;BMP_temperature;BMP_pressure;BME280_temperature;BME280_humidity;BME280_pressure;Samples;Min_cycle;Max_cycle;Signal;HPM_P1;HPM_P2
2022/11/20 00:01:05;;;;;;;11.40;6.88;;;;;;;14.48;100.00;93766.88;5051460;28;20239;-61
2022/11/20 00:03:31;;;;;;;10.23;7.22;;;;;;;14.45;100.00;93772.31;5051405;28;20198;-67
2022/11/20 00:06:04;;;;;;;10.82;6.70;;;;;;;14.43;100.00;93776.03;5033442;28;20351;-62
2022/11/20 00:08:29;;;;;;;10.38;6.25;;;;;;;14.33;100.00;93781.38;5051334;28;20663;-62
2022/11/20 00:10:54;;;;;;;10.45;6.35;;;;;;;14.14;100.00;93762.19;5051139;28;20215;-63
2022/11/20 00:13:20;;;;;;;8.40;6.13;;;;;;;14.45;100.00;93776.63;5051388;28;20177;-63
2022/11/20 00:15:45;;;;;;;6.57;5.63;;;;;;;14.55;100.00;93772.06;5051059;28;20213;-68
2022/11/20 00:18:11;;;;;;;9.53;6.13;;;;;;;14.49;100.00;93770.19;5033450;28;20219;-63
2022/11/20 00:20:36;;;;;;;9.40;5.77;;;;;;;14.54;100.00;93804.53;5051501;28;20244;-64
2022/11/20 00:23:02;;;;;;;6.38;4.63;;;;;;;14.38;100.00;93786.78;5051341;28;20278;-62
2022/11/20 00:25:27;;;;;;;8.23;5.23;;;;;;;14.34;100.00;93752.31;5050981;28;20585;-63
2022/11/20 00:27:52;;;;;;;10.07;5.75;;;;;;;14.64;100.00;93802.53;5051096;28;20613;-62
2022/11/20 00:30:18;;;;;;;7.78;4.88;;;;;;;14.45;100.00;93792.78;5058433;22;20225;-63
2022/11/20 00:32:43;;;;;;;7.70;4.87;;;;;;;14.61;100.00;93787.50;5051157;28;20221;-67
2022/11/20 00:35:08;;;;;;;6.87;4.87;;;;;;;14.78;100.00;93809.41;5051225;28;20339;-68
2022/11/20 00:37:34;;;;;;;7.47;4.00;;;;;;;14.68;100.00;93795.28;5050973;28;20212;-62
2022/11/20 00:39:59;;;;;;;7.85;4.53;;;;;;;14.60;100.00;93811.50;5050552;28;20623;-66
2022/11/20 00:42:25;;;;;;;7.03;4.40;;;;;;;14.81;100.00;93834.63;5033269;28;20224;-63
2022/11/20 00:44:50;;;;;;;5.90;3.38;;;;;;;14.83;100.00;93824.22;5033024;28;20209;-67
2022/11/20 00:47:15;;;;;;;7.25;4.03;;;;;;;14.82;100.00;93843.13;5050819;28;20311;-63
2022/11/20 00:49:41;;;;;;;5.10;4.00;;;;;;;14.85;100.00;93855.53;5051053;28;20255;-62
2022/11/20 00:52:06;;;;;;;5.85;4.15;;;;;;;14.89;100.00;93844.78;5050984;28;20185;-63
2022/11/20 00:54:32;;;;;;;8.30;4.07;;;;;;;15.12;100.00;93875.44;5050494;28;20278;-62
2022/11/20 00:56:57;;;;;;;8.25;3.40;;;;;;;15.27;100.00;93913.84;5050648;28;20292;-62
2022/11/20 00:59:22;;;;;;;6.78;3.30;;;;;;;15.09;100.00;93906.50;5058125;22;20621;-64
2022/11/20 01:01:48;;;;;;;4.47;2.90;;;;;;;15.08;100.00;93887.00;5050926;28;20220;-62
2022/11/20 01:04:13;;;;;;;8.03;3.90;;;;;;;15.29;100.00;93899.09;5051004;28;20214;-63
2022/11/20 01:06:39;;;;;;;4.13;3.15;;;;;;;15.36;100.00;93956.31;5050808;28;20252;-63
2022/11/20 01:09:08;;;;;;;3.63;2.83;;;;;;;15.38;100.00;93923.63;5035027;28;20701;-67
2022/11/20 01:11:36;;;;;;;4.00;2.67;;;;;;;15.55;100.00;93914.84;5054098;28;20198;-66
2022/11/20 01:14:03;;;;;;;5.35;2.30;;;;;;;15.57;100.00;93933.41;5054295;28;20721;-62
2022/11/20 01:16:35;;;;;;;6.20;2.75;;;;;;;15.64;100.00;93954.75;5054139;28;20254;-62
2022/11/20 01:19:04;;;;;;;5.13;2.60;;;;;;;15.55;100.00;93907.97;5054637;28;20215;-63
2022/11/20 01:21:33;;;;;;;5.43;2.75;;;;;;;15.70;100.00;93929.22;5053861;28;20189;-63
2022/11/20 01:24:00;;;;;;;4.88;2.60;;;;;;;15.93;100.00;93988.06;5062702;22;20227;-62
2022/11/20 01:26:31;;;;;;;3.58;2.42;;;;;;;15.94;100.00;93961.44;5035748;28;20679;-61
2022/11/20 01:28:58;;;;;;;6.45;2.17;;;;;;;15.72;100.00;93901.66;5053663;28;20201;-64
2022/11/20 01:31:32;;;;;;;3.63;2.25;;;;;;;15.90;100.00;93957.66;5053859;28;20197;-63
2022/11/20 01:34:00;;;;;;;5.20;2.50;;;;;;;15.79;100.00;93914.56;5053717;28;20188;-62
2022/11/20 01:36:27;;;;;;;4.05;2.58;;;;;;;15.72;100.00;93905.97;5053525;28;20232;-66
2022/11/20 01:39:01;;;;;;;5.93;2.88;;;;;;;15.76;100.00;93896.97;5053602;28;20219;-66
2022/11/20 01:44:16;;;;;;;4.72;2.45;;;;;;;15.58;100.00;93847.88;5053822;28;20278;-63
2022/11/20 01:46:51;;;;;;;4.65;2.33;;;;;;;15.91;100.00;93879.78;5035464;28;20194;-66
2022/11/20 01:49:21;;;;;;;4.43;2.55;;;;;;;15.93;100.00;93896.59;5053520;28;20224;-62
2022/11/20 01:51:55;;;;;;;5.40;3.33;;;;;;;15.79;100.00;93853.03;5035733;28;20709;-66
2022/11/20 01:54:31;;;;;;;5.97;2.47;;;;;;;15.78;100.00;93851.44;5053706;28;20250;-62
2022/11/20 01:56:59;;;;;;;4.53;3.05;;;;;;;15.79;100.00;93837.66;5035925;28;20201;-62
2022/11/20 01:59:27;;;;;;;7.13;3.35;;;;;;;15.82;100.00;93821.91;5035480;28;20695;-62
2022/11/20 02:01:53;;;;;;;5.32;2.97;;;;;;;15.84;100.00;93827.66;5053676;28;20182;-66
2022/11/20 02:04:20;;;;;;;3.97;3.17;;;;;;;15.67;100.00;93810.94;5035810;28;20212;-61
2022/11/20 02:06:49;;;;;;;6.05;3.53;;;;;;;15.64;100.00;93811.28;5053089;28;20319;-61
2022/11/20 02:09:15;;;;;;;6.40;3.63;;;;;;;15.56;100.00;93807.06;5053377;28;20205;-62
2022/11/20 02:11:41;;;;;;;5.63;3.15;;;;;;;15.32;100.00;93774.06;5053491;28;20316;-61
2022/11/20 02:14:07;;;;;;;7.50;3.50;;;;;;;15.57;100.00;93836.03;5035007;28;20210;-62
2022/11/20 02:16:47;;;;;;;5.45;3.42;;;;;;;15.44;100.00;93818.75;5053098;28;20218;-62
2022/11/20 02:19:31;;;;;;;4.35;3.03;;;;;;;15.40;100.00;93807.25;5035505;28;20613;-66
2022/11/20 02:22:14;;;;;;;4.97;3.20;;;;;;;15.28;100.00;93810.44;5053811;28;20186;-62
2022/11/20 02:24:41;;;;;;;4.03;2.58;;;;;;;15.55;100.00;93836.22;5035423;28;20214;-66
2022/11/20 02:27:13;;;;;;;5.70;3.10;;;;;;;15.45;100.00;93840.03;5034900;28;20228;-62
2022/11/20 02:29:51;;;;;;;4.38;2.25;;;;;;;15.51;100.00;93885.44;5035363;28;20198;-65
2022/11/20 02:32:21;;;;;;;5.57;2.50;;;;;;;15.74;100.00;93881.78;5053156;28;20185;-66
2022/11/20 02:34:46;;;;;;;2.92;2.40;;;;;;;15.76;100.00;93897.75;5052869;28;20569;-62
2022/11/20 02:37:12;;;;;;;4.80;2.42;;;;;;;15.71;100.00;93889.03;5052717;28;20217;-62
2022/11/20 02:39:39;;;;;;;5.97;2.35;;;;;;;15.86;100.00;93915.41;5052992;28;20631;-63
2022/11/20 02:42:05;;;;;;;2.45;1.83;;;;;;;15.87;100.00;93960.59;5053066;28;20182;-61
2022/11/20 02:44:30;;;;;;;5.72;2.00;;;;;;;15.94;100.00;93975.06;5052866;28;20553;-63
2022/11/20 02:46:58;;;;;;;5.20;2.63;;;;;;;16.10;100.00;93981.75;5052520;28;20335;-63
2022/11/20 02:49:23;;;;;;;1.55;1.33;;;;;;;16.33;100.00;94079.91;5034935;28;20220;-67
2022/11/20 02:51:49;;;;;;;2.65;1.35;;;;;;;16.59;100.00;94069.19;5052608;28;20181;-66
2022/11/20 02:54:14;;;;;;;1.70;1.40;;;;;;;16.67;100.00;94087.84;5052380;28;20213;-67
2022/11/20 02:56:40;;;;;;;0.95;0.65;;;;;;;17.06;100.00;94153.44;5034410;28;20770;-64
2022/11/20 02:59:05;;;;;;;1.77;0.80;;;;;;;17.27;100.00;94174.03;5052959;28;20216;-65
2022/11/20 03:01:30;;;;;;;3.03;1.00;;;;;;;17.58;99.36;94172.00;5052335;28;20276;-61
2022/11/20 03:03:56;;;;;;;0.52;0.52;;;;;;;17.66;98.82;94158.22;5052618;28;20268;-60
2022/11/20 03:06:21;;;;;;;1.50;0.80;;;;;;;17.82;98.13;94166.47;5035043;28;20203;-61
2022/11/20 03:08:47;;;;;;;3.35;0.70;;;;;;;17.91;97.70;94177.44;5052401;28;20208;-66
2022/11/20 03:11:13;;;;;;;0.90;0.52;;;;;;;18.00;97.56;94171.94;5052521;28;20214;-61
2022/11/20 03:13:38;;;;;;;2.33;0.70;;;;;;;18.02;97.99;94146.84;5034390;28;20181;-61
2022/11/20 03:16:12;;;;;;;5.20;0.80;;;;;;;18.12;97.17;94167.88;5052524;28;20217;-62
2022/11/20 03:18:38;;;;;;;2.90;0.80;;;;;;;18.14;96.96;94150.47;5059612;22;20339;-62
2022/11/20 03:21:04;;;;;;;1.70;0.70;;;;;;;18.21;96.38;94166.78;5032346;28;20195;-61
2022/11/20 03:23:31;;;;;;;1.23;0.50;;;;;;;18.18;97.02;94174.09;5032024;28;20236;-61
2022/11/20 03:28:48;;;;;;;2.83;0.73;;;;;;;18.03;97.52;94130.44;5058940;22;20668;-63
2022/11/20 03:31:15;;;;;;;0.95;0.60;;;;;;;18.12;97.30;94147.31;5051421;28;20192;-60
2022/11/20 03:33:41;;;;;;;1.38;0.98;;;;;;;18.09;97.23;94152.03;5051924;28;20225;-63
2022/11/20 03:36:10;;;;;;;2.47;0.60;;;;;;;18.15;97.40;94164.16;5051556;28;20209;-62
2022/11/20 03:38:36;;;;;;;1.70;0.63;;;;;;;18.15;96.51;94159.81;5052975;28;20189;-63
2022/11/20 03:41:07;;;;;;;0.93;0.60;;;;;;;18.23;95.89;94182.81;5052288;28;20288;-65
2022/11/20 03:43:33;;;;;;;1.33;0.60;;;;;;;18.23;96.51;94171.72;5034321;28;20254;-63
2022/11/20 03:45:59;;;;;;;2.25;0.82;;;;;;;18.19;96.74;94152.50;5051528;28;20213;-62
2022/11/20 03:48:24;;;;;;;2.75;0.90;;;;;;;18.16;96.45;94160.59;5051998;28;20189;-61
2022/11/20 03:50:51;;;;;;;0.70;0.50;;;;;;;18.26;86.37;94184.22;5052014;28;20603;-60
2022/11/20 03:53:17;;;;;;;2.92;0.82;;;;;;;18.32;83.58;94199.69;5051928;28;20570;-62
2022/11/20 03:55:42;;;;;;;1.85;0.63;;;;;;;18.30;82.42;94181.06;5033972;28;20258;-61
2022/11/20 03:58:08;;;;;;;1.58;0.68;;;;;;;18.29;80.65;94186.41;5033810;28;20197;-60
2022/11/20 04:00:34;;;;;;;5.38;0.88;;;;;;;18.31;80.80;94187.81;5051607;28;20202;-63
2022/11/20 04:03:00;;;;;;;2.47;0.73;;;;;;;18.23;81.04;94161.44;5033659;28;20547;-62
2022/11/20 04:05:26;;;;;;;1.52;0.75;;;;;;;18.19;80.61;94162.78;5052351;28;20198;-61
2022/11/20 04:07:51;;;;;;;1.15;0.63;;;;;;;18.25;79.63;94167.97;5033606;28;20242;-61
2022/11/20 04:10:17;;;;;;;1.38;0.63;;;;;;;18.22;79.78;94173.50;5051656;28;20577;-66
2022/11/20 04:12:43;;;;;;;1.58;0.70;;;;;;;18.31;79.16;94182.69;5052342;28;20201;-65
2022/11/20 04:15:09;;;;;;;1.10;0.73;;;;;;;18.19;79.04;94166.16;5052617;28;20239;-62
2022/11/20 04:17:34;;;;;;;3.95;0.73;;;;;;;18.22;78.84;94196.66;5033941;28;20217;-64
2022/11/20 04:20:01;;;;;;;2.78;0.57;;;;;;;18.26;78.36;94197.88;5041585;23;20232;-65
2022/11/20 04:22:26;;;;;;;3.28;0.90;;;;;;;18.21;78.15;94191.69;5052057;28;20219;-62
2022/11/20 04:24:52;;;;;;;2.15;0.60;;;;;;;18.24;78.38;94191.34;5033174;28;20694;-62
2022/11/20 04:27:17;;;;;;;2.15;0.80;;;;;;;18.22;77.86;94188.16;5051699;28;20200;-60
2022/11/20 04:29:43;;;;;;;2.78;0.60;;;;;;;18.18;78.29;94190.28;5052137;28;20202;-62
2022/11/20 04:32:08;;;;;;;1.10;0.60;;;;;;;18.23;78.01;94185.41;5052005;28;20196;-61
2022/11/20 04:34:33;;;;;;;2.03;0.93;;;;;;;18.27;77.46;94184.03;5051541;28;20763;-66
2022/11/20 04:36:59;;;;;;;2.35;0.88;;;;;;;18.16;78.91;94161.38;5050964;28;20205;-60
2022/11/20 04:39:24;;;;;;;2.40;0.73;;;;;;;18.14;78.91;94155.63;5051208;28;20207;-60
2022/11/20 04:42:28;;;;;;;3.45;0.70;;;;;;;18.20;79.05;94160.03;5050897;28;20189;-61
2022/11/20 04:44:37;;;;;;;2.80;0.70;;;;;;;18.16;80.27;94130.50;5050013;28;20231;-66
2022/11/20 04:47:03;;;;;;;3.28;0.60;;;;;;;18.20;79.99;94130.94;5033877;28;20196;-64
2022/11/20 04:49:28;;;;;;;1.67;1.00;;;;;;;18.17;80.15;94106.38;5051622;28;20205;-62
2022/11/20 04:51:57;;;;;;;2.60;0.88;;;;;;;18.05;81.58;94089.88;5051138;28;20178;-63
2022/11/20 04:54:22;;;;;;;3.90;0.70;;;;;;;18.15;80.99;94103.19;5033145;28;20213;-61
2022/11/20 04:56:48;;;;;;;3.15;0.90;;;;;;;18.03;81.79;94089.28;5050737;28;20212;-62
2022/11/20 04:59:14;;;;;;;1.08;0.88;;;;;;;17.85;82.75;94050.38;5050538;28;20300;-62
2022/11/20 05:01:39;;;;;;;1.75;0.60;;;;;;;17.91;82.27;94044.50;5050692;28;20181;-62
2022/11/20 05:04:05;;;;;;;2.83;0.80;;;;;;;17.86;82.86;94051.97;5050578;28;20217;-62
2022/11/20 05:06:31;;;;;;;2.97;0.60;;;;;;;17.74;83.65;94027.75;5032622;28;20238;-61
2022/11/20 05:08:57;;;;;;;5.53;1.05;;;;;;;17.88;82.86;94052.56;5050387;28;20720;-63
2022/11/20 05:11:23;;;;;;;0.95;0.88;;;;;;;17.84;83.51;94041.06;5050627;28;20189;-62
2022/11/20 05:13:50;;;;;;;2.38;0.80;;;;;;;17.84;83.73;94040.25;5050911;28;20182;-61
2022/11/20 05:16:20;;;;;;;1.90;0.70;;;;;;;17.88;84.30;94018.34;5050700;28;20754;-60
2022/11/20 05:18:46;;;;;;;0.52;0.52;;;;;;;17.81;85.04;93991.81;5050449;28;20287;-62
2022/11/20 05:21:12;;;;;;;3.85;0.80;;;;;;;17.66;87.80;93931.97;5050681;28;20619;-63
2022/11/20 05:23:39;;;;;;;1.00;0.80;;;;;;;17.59;91.11;93880.56;5050248;28;20186;-62
2022/11/20 05:26:05;;;;;;;2.45;0.93;;;;;;;17.32;94.31;93830.78;5050044;28;20247;-61
2022/11/20 05:28:32;;;;;;;1.10;1.00;;;;;;;17.14;97.74;93779.13;5050549;28;20181;-65
2022/11/20 05:31:05;;;;;;;1.67;0.85;;;;;;;17.07;99.06;93762.13;5051124;28;20213;-65
2022/11/20 05:33:30;;;;;;;1.20;1.10;;;;;;;17.01;100.00;93742.34;5050509;28;20196;-61
2022/11/20 05:35:59;;;;;;;3.60;0.82;;;;;;;16.84;100.00;93723.09;5049903;28;20217;-63
2022/11/20 05:38:25;;;;;;;2.15;0.80;;;;;;;16.90;100.00;93750.56;5050709;28;20193;-62
2022/11/20 05:40:50;;;;;;;4.75;1.02;;;;;;;16.84;100.00;93753.88;5050876;28;20251;-66
2022/11/20 05:43:16;;;;;;;1.30;1.00;;;;;;;16.68;100.00;93735.22;5050140;28;20189;-66
2022/11/20 05:45:41;;;;;;;2.47;1.15;;;;;;;16.70;100.00;93746.09;5050368;28;20675;-61
2022/11/20 05:48:07;;;;;;;3.03;1.15;;;;;;;16.67;100.00;93748.25;5050160;28;20194;-62
2022/11/20 05:50:32;;;;;;;1.63;1.00;;;;;;;16.58;100.00;93736.56;5031975;28;20599;-65
2022/11/20 05:52:59;;;;;;;1.63;1.05;;;;;;;16.52;100.00;93725.28;5050156;28;20192;-62
2022/11/20 05:55:25;;;;;;;5.57;1.00;;;;;;;16.59;100.00;93751.78;5052445;28;20209;-62
2022/11/20 05:57:52;;;;;;;1.70;0.85;;;;;;;16.50;100.00;93752.13;5053347;28;20217;-61
2022/11/20 06:00:18;;;;;;;3.10;1.02;;;;;;;16.54;100.00;93756.66;5053145;28;20209;-62
2022/11/20 06:02:43;;;;;;;1.77;0.90;;;;;;;16.51;100.00;93757.06;5053530;28;20199;-67
2022/11/20 06:05:09;;;;;;;3.83;1.23;;;;;;;16.53;100.00;93757.66;5035373;28;20596;-62
2022/11/20 06:07:34;;;;;;;1.92;1.30;;;;;;;16.44;100.00;93766.44;5053120;28;20235;-62
2022/11/20 06:09:59;;;;;;;4.60;1.25;;;;;;;16.52;100.00;93791.97;5035348;28;20613;-62
2022/11/20 06:12:25;;;;;;;3.80;1.10;;;;;;;16.49;100.00;93776.97;5053303;28;20193;-62
2022/11/20 06:14:50;;;;;;;2.55;1.00;;;;;;;16.37;100.00;93765.59;5052903;28;20213;-61
2022/11/20 06:17:15;;;;;;;1.90;1.00;;;;;;;16.48;100.00;93780.47;5052962;28;20209;-65
2022/11/20 06:19:41;;;;;;;2.15;1.10;;;;;;;16.51;100.00;93794.75;5035054;28;20228;-62
2022/11/20 06:22:06;;;;;;;3.03;1.67;;;;;;;16.54;100.00;93814.91;5052868;28;20189;-66
2022/11/20 06:24:32;;;;;;;3.78;3.00;;;;;;;16.47;100.00;93817.38;5052923;28;20624;-66
2022/11/20 06:26:57;;;;;;;4.40;2.00;;;;;;;16.52;100.00;93812.50;5052980;28;20569;-65
2022/11/20 06:29:22;;;;;;;7.32;3.97;;;;;;;16.50;100.00;93799.06;5035043;28;20219;-63
2022/11/20 06:31:48;;;;;;;3.85;2.47;;;;;;;16.49;100.00;93802.63;5034926;28;20615;-66
2022/11/20 06:34:13;;;;;;;4.50;2.50;;;;;;;16.55;100.00;93832.69;5052656;28;20287;-61
2022/11/20 06:36:39;;;;;;;3.60;1.70;;;;;;;16.65;100.00;93820.31;5052817;28;20247;-63
2022/11/20 06:39:04;;;;;;;4.60;1.63;;;;;;;16.66;100.00;93844.22;5034716;28;20212;-61
2022/11/20 06:41:29;;;;;;;1.85;1.10;;;;;;;16.96;98.24;93879.00;5052844;28;20205;-63
2022/11/20 06:43:55;;;;;;;2.63;1.05;;;;;;;16.98;97.70;93887.28;5052409;28;20185;-62
2022/11/20 06:46:21;;;;;;;6.35;1.42;;;;;;;16.98;97.30;93881.34;5052526;28;20273;-62
2022/11/20 06:48:48;;;;;;;3.78;1.27;;;;;;;16.81;98.27;93868.00;5052537;28;20546;-62
2022/11/20 06:51:14;;;;;;;5.50;2.63;;;;;;;16.79;99.71;93839.97;5034810;28;20630;-63
2022/11/20 06:53:39;;;;;;;5.72;1.83;;;;;;;16.86;98.22;93886.22;5052557;28;20181;-61
2022/11/20 06:56:06;;;;;;;6.63;1.48;;;;;;;16.86;97.93;93885.41;5052387;28;20212;-66
2022/11/20 06:58:33;;;;;;;4.82;1.70;;;;;;;16.79;98.25;93881.03;5052549;28;20285;-65
2022/11/20 07:01:00;;;;;;;7.40;2.38;;;;;;;16.84;97.98;93885.63;5052406;28;20232;-66
2022/11/20 07:03:25;;;;;;;5.55;2.30;;;;;;;16.87;98.20;93894.72;5052359;28;20182;-63
2022/11/20 07:05:51;;;;;;;5.97;1.75;;;;;;;16.90;97.58;93904.59;5051685;28;20217;-62
2022/11/20 07:08:16;;;;;;;2.72;1.40;;;;;;;16.88;97.50;93904.00;5052413;28;20631;-61
2022/11/20 07:10:41;;;;;;;6.85;2.03;;;;;;;16.93;98.04;93904.25;5034682;28;20273;-63
2022/11/20 07:13:07;;;;;;;4.25;1.77;;;;;;;16.99;96.57;93922.25;5059560;22;20225;-66
2022/11/20 07:15:33;;;;;;;3.97;1.58;;;;;;;16.88;96.28;93889.41;5052121;28;20284;-62
2022/11/20 07:17:59;;;;;;;3.03;1.60;;;;;;;17.14;97.36;93892.16;5052048;28;20213;-61
2022/11/20 07:20:25;;;;;;;2.88;1.70;;;;;;;17.27;96.91;93912.00;5051951;28;20242;-62
2022/11/20 07:22:55;;;;;;;4.00;1.55;;;;;;;17.36;94.60;93952.75;5052332;28;20629;-66
2022/11/20 07:25:21;;;;;;;2.90;1.63;;;;;;;17.23;96.95;93915.91;5051811;28;20205;-64
2022/11/20 07:27:46;;;;;;;5.55;1.05;;;;;;;17.09;92.79;93968.19;5052253;28;20201;-67
2022/11/20 07:30:13;;;;;;;1.77;0.95;;;;;;;17.22;91.51;93993.94;5051723;28;20295;-65
2022/11/20 07:32:39;;;;;;;9.77;3.92;;;;;;;17.09;91.94;93974.09;5033979;28;20275;-64
2022/11/20 07:35:05;;;;;;;2.10;1.20;;;;;;;17.05;93.64;93952.31;5051806;28;20296;-63
2022/11/20 07:37:30;;;;;;;5.45;1.60;;;;;;;17.07;92.48;93972.69;5033746;28;20218;-66
2022/11/20 07:39:55;;;;;;;6.22;1.48;;;;;;;17.11;93.19;93955.94;5051672;28;20343;-62
2022/11/20 07:42:21;;;;;;;1.63;1.20;;;;;;;17.33;91.51;93990.88;5051616;28;20189;-62
2022/11/20 07:44:46;;;;;;;4.88;1.95;;;;;;;17.14;93.33;93952.97;5051721;28;20273;-63
2022/11/20 07:47:12;;;;;;;6.15;1.88;;;;;;;17.37;91.61;93984.38;5052128;28;20191;-66
2022/11/20 07:49:37;;;;;;;5.68;2.22;;;;;;;17.29;92.08;93975.03;5051605;28;20215;-66
2022/11/20 07:52:02;;;;;;;2.35;1.48;;;;;;;17.24;91.26;93989.41;5051379;28;20212;-65
2022/11/20 07:54:28;;;;;;;2.55;1.40;;;;;;;17.28;92.03;93967.50;5033388;28;20702;-65
2022/11/20 07:56:53;;;;;;;5.95;1.23;;;;;;;17.31;90.93;93998.00;5051445;28;20225;-66
2022/11/20 07:59:19;;;;;;;3.55;2.35;;;;;;;17.31;91.66;93980.78;5051396;28;20209;-64
2022/11/20 08:01:44;;;;;;;3.13;1.63;;;;;;;17.28;92.50;93967.50;5051245;28;20207;-66
2022/11/20 08:04:10;;;;;;;5.35;1.70;;;;;;;17.41;93.02;93959.91;5051381;28;20217;-65
2022/11/20 08:06:36;;;;;;;3.03;1.48;;;;;;;17.39;92.49;93969.56;5051400;28;20268;-63
2022/11/20 08:09:02;;;;;;;3.78;1.50;;;;;;;17.36;93.73;93941.69;5051347;28;20295;-62
2022/11/20 08:14:11;;;;;;;2.17;1.42;;;;;;;17.37;94.00;93928.63;5051220;28;20589;-67
2022/11/20 08:16:37;;;;;;;8.57;1.65;;;;;;;17.72;90.99;93975.72;5051262;28;20209;-66
2022/11/20 08:19:03;;;;;;;3.25;1.52;;;;;;;17.81;91.63;93961.75;5050912;28;20209;-64
2022/11/20 08:21:32;;;;;;;4.90;1.65;;;;;;;17.94;100.00;93694.31;5051024;28;20235;-65
2022/11/20 08:23:58;;;;;;;7.22;1.70;;;;;;;18.29;100.00;93834.66;5032976;28;20205;-66
2022/11/20 08:26:24;;;;;;;5.13;1.55;;;;;;;18.70;100.00;93769.34;5032948;28;20193;-66
2022/11/20 08:28:54;;;;;;;4.97;1.70;;;;;;;18.82;100.00;93848.38;5033163;28;20178;-63
2022/11/20 08:31:20;;;;;;;5.07;1.88;;;;;;;19.17;100.00;93860.00;5051190;28;20185;-62
2022/11/20 08:33:45;;;;;;;3.88;1.20;;;;;;;19.29;86.42;94144.50;5050684;28;20338;-61
2022/11/20 08:36:11;;;;;;;5.28;1.20;;;;;;;19.24;81.13;94185.53;5050672;28;20217;-61
2022/11/20 08:38:36;;;;;;;4.95;1.52;;;;;;;19.02;79.82;94171.19;5050821;28;20182;-61
2022/11/20 08:43:49;;;;;;;4.97;1.60;;;;;;;18.56;80.94;94128.19;5051025;28;20262;-61
2022/11/20 08:46:14;;;;;;;4.57;1.42;;;;;;;18.30;81.07;94127.03;5050766;28;20193;-60
2022/11/20 08:48:46;;;;;;;3.10;1.30;;;;;;;18.29;80.09;94158.91;5050704;28;20177;-62
2022/11/20 08:51:12;;;;;;;6.03;1.38;;;;;;;18.28;80.85;94143.66;5050846;28;20209;-65
2022/11/20 08:53:38;;;;;;;4.57;1.67;;;;;;;18.08;82.24;94135.78;5032828;28;20185;-63
2022/11/20 08:56:05;;;;;;;5.45;1.60;;;;;;;17.97;82.56;94135.53;5050289;28;20240;-62
2022/11/20 08:58:30;;;;;;;5.68;1.85;;;;;;;18.04;82.85;94121.72;5050460;28;20244;-64
2022/11/20 09:00:56;;;;;;;6.32;1.88;;;;;;;18.25;81.47;94142.25;5050298;28;20209;-62
2022/11/20 09:03:21;;;;;;;4.28;1.67;;;;;;;18.11;82.58;94116.63;5032592;28;20273;-63
2022/11/20 09:05:47;;;;;;;3.38;1.58;;;;;;;17.85;84.02;94081.25;5050222;28;20667;-63
2022/11/20 09:08:12;;;;;;;4.30;1.55;;;;;;;17.86;83.98;94094.88;5049472;28;20578;-63
2022/11/20 09:10:41;;;;;;;4.15;1.40;;;;;;;17.90;83.50;94101.22;5048797;28;20202;-62
2022/11/20 09:13:06;;;;;;;16.83;1.80;;;;;;;17.72;85.21;94058.00;5050553;28;20189;-63
2022/11/20 09:15:32;;;;;;;7.00;1.83;;;;;;;17.57;88.10;94011.06;5050110;28;20687;-64
2022/11/20 09:18:01;;;;;;;3.58;1.77;;;;;;;17.38;89.58;93993.66;5049980;28;20324;-61
2022/11/20 09:20:28;;;;;;;1.90;1.55;;;;;;;17.22;93.00;93927.16;5049974;28;20214;-60
2022/11/20 09:22:54;;;;;;;5.72;2.70;;;;;;;17.09;96.04;93871.34;5057783;22;20294;-63
2022/11/20 09:25:19;;;;;;;9.20;3.08;;;;;;;16.95;99.40;93831.16;5032239;28;20240;-63
2022/11/20 09:27:45;;;;;;;4.40;3.30;;;;;;;16.85;100.00;93814.53;5050278;28;20197;-64
2022/11/20 09:30:14;;;;;;;8.43;3.13;;;;;;;16.77;100.00;93833.41;5046319;28;20643;-61
2022/11/20 09:32:40;;;;;;;4.75;1.48;;;;;;;16.54;99.39;93877.25;5044257;28;20668;-65
2022/11/20 09:35:10;;;;;;;2.65;1.83;;;;;;;16.43;99.95;93864.91;5042953;28;20562;-62
2022/11/20 09:37:36;;;;;;;4.38;1.50;;;;;;;16.29;100.00;93835.00;5035094;28;20230;-62
2022/11/20 09:40:01;;;;;;;1.45;0.80;;;;;;;16.37;100.00;93826.38;5033687;28;20277;-61
2022/11/20 09:42:49;;;;;;;2.50;1.10;;;;;;;16.60;100.00;93811.59;5033587;28;20205;-64
2022/11/20 09:45:30;;;;;;;1.23;1.08;;;;;;;16.58;100.00;93811.00;5014255;28;20214;-61
2022/11/20 09:48:04;;;;;;;0.93;0.85;;;;;;;16.65;100.00;93812.63;5033714;28;20285;-62
2022/11/20 09:50:43;;;;;;;1.38;1.17;;;;;;;16.50;100.00;93806.78;5033522;28;20224;-64
2022/11/20 09:53:27;;;;;;;2.25;1.30;;;;;;;16.86;100.00;93816.09;5015813;28;20197;-65
2022/11/20 09:55:54;;;;;;;1.55;0.93;;;;;;;16.98;100.00;93783.78;5033821;28;20210;-63
2022/11/20 09:58:29;;;;;;;3.65;1.50;;;;;;;16.91;100.00;93755.50;5033545;28;20190;-62
2022/11/20 10:01:09;;;;;;;2.50;1.60;;;;;;;16.93;100.00;93779.22;5033485;28;20214;-64
2022/11/20 10:04:07;;;;;;;2.72;1.67;;;;;;;16.79;100.00;93746.75;5033743;28;20247;-61
2022/11/20 10:06:41;;;;;;;6.78;1.52;;;;;;;16.54;100.00;93748.97;5033401;28;20190;-64
2022/11/20 10:09:10;;;;;;;3.45;1.10;;;;;;;16.38;100.00;93735.63;5015440;28;20217;-63
2022/11/20 10:11:48;;;;;;;3.28;1.63;;;;;;;16.62;100.00;93797.56;5015446;28;20190;-62
2022/11/20 10:14:16;;;;;;;2.28;1.33;;;;;;;16.62;100.00;93833.50;5032932;28;20721;-61
2022/11/20 10:16:56;;;;;;;3.33;1.45;;;;;;;16.44;100.00;93799.78;5032995;28;20210;-62
2022/11/20 10:20:09;;;;;;;4.07;1.48;;;;;;;16.26;100.00;93804.56;5033033;28;20245;-62
2022/11/20 10:22:55;;;;;;;4.45;2.53;;;;;;;16.51;100.00;93862.25;4985221;28;20206;-61
2022/11/20 10:25:26;;;;;;;2.45;1.25;;;;;;;16.49;100.00;93805.19;5031291;28;20218;-62
2022/11/20 10:28:10;;;;;;;5.18;1.98;;;;;;;16.61;100.00;93777.25;5030910;28;20228;-62
2022/11/20 10:30:42;;;;;;;4.00;1.80;;;;;;;16.85;100.00;93822.22;5033041;28;20222;-64
2022/11/20 10:33:11;;;;;;;6.90;2.22;;;;;;;16.68;100.00;93809.66;5033025;28;20217;-62
2022/11/20 10:35:55;;;;;;;7.07;2.30;;;;;;;16.35;100.00;93767.56;5015120;28;20206;-62
2022/11/20 10:38:31;;;;;;;6.38;2.50;;;;;;;16.22;100.00;93749.50;5033374;28;20618;-61
2022/11/20 10:43:50;;;;;;;5.50;2.72;;;;;;;16.48;100.00;93754.03;5033343;28;20654;-65
2022/11/20 10:46:21;;;;;;;5.03;2.92;;;;;;;16.37;100.00;93749.41;5015046;28;20186;-61
2022/11/20 10:48:48;;;;;;;4.40;2.35;;;;;;;16.51;100.00;93761.38;5015409;28;20198;-65
2022/11/20 10:51:32;;;;;;;4.60;2.80;;;;;;;16.66;100.00;93762.84;5032731;28;20194;-61
2022/11/20 10:54:15;;;;;;;8.95;2.97;;;;;;;16.98;100.00;93806.91;5032618;28;20210;-61
2022/11/20 10:56:53;;;;;;;5.55;2.42;;;;;;;16.82;100.00;93812.31;5030948;28;20214;-65
2022/11/20 10:59:39;;;;;;;6.80;3.35;;;;;;;16.84;100.00;93825.78;5047004;23;20232;-61
2022/11/20 11:02:22;;;;;;;4.25;2.90;;;;;;;16.59;100.00;93759.47;5061415;22;20221;-63
2022/11/20 11:04:50;;;;;;;5.63;3.05;;;;;;;16.15;100.00;93753.81;5052182;28;20208;-64
2022/11/20 11:07:22;;;;;;;4.65;2.78;;;;;;;16.50;100.00;93791.38;5052244;28;20632;-64
2022/11/20 11:09:50;;;;;;;7.03;3.13;;;;;;;16.40;100.00;93797.81;5052038;28;20220;-65
2022/11/20 11:12:16;;;;;;;9.80;3.53;;;;;;;16.22;100.00;93795.66;5052243;28;20202;-62
2022/11/20 11:14:59;;;;;;;9.55;3.90;;;;;;;16.06;100.00;93808.75;5051446;28;20209;-62
2022/11/20 11:17:27;;;;;;;7.82;3.75;;;;;;;16.07;100.00;93828.28;5032174;28;20240;-61
2022/11/20 11:20:06;;;;;;;6.45;3.65;;;;;;;16.16;100.00;93840.00;5049880;28;20220;-62
2022/11/20 11:22:34;;;;;;;13.35;3.95;;;;;;;15.83;100.00;93861.97;5032417;28;20181;-61
2022/11/20 11:25:01;;;;;;;6.28;2.80;;;;;;;15.53;100.00;93852.75;5051592;28;20210;-60
2022/11/20 11:27:26;;;;;;;5.75;2.70;;;;;;;15.36;100.00;93841.06;5033954;28;20235;-65
2022/11/20 11:30:14;;;;;;;9.68;2.35;;;;;;;15.12;100.00;93850.63;5033720;28;20209;-61
2022/11/20 11:32:39;;;;;;;1.67;1.15;;;;;;;14.83;100.00;93872.84;5033945;28;20190;-63
2022/11/20 11:35:11;;;;;;;3.88;1.13;;;;;;;14.66;100.00;93891.88;5051771;28;20710;-60
2022/11/20 11:37:38;;;;;;;3.13;0.80;;;;;;;14.66;100.00;93905.47;5059315;22;20324;-60
2022/11/20 11:40:06;;;;;;;2.55;1.02;;;;;;;14.58;100.00;93895.31;5051655;28;20206;-60
2022/11/20 11:42:31;;;;;;;1.13;0.73;;;;;;;14.32;100.00;93920.44;5051560;28;20185;-61
2022/11/20 11:45:05;;;;;;;0.50;0.50;;;;;;;14.31;100.00;93929.06;5051484;28;20748;-64
2022/11/20 11:47:51;;;;;;;1.97;1.30;;;;;;;14.27;100.00;93861.31;5050689;28;20574;-61